createdAt,value
2023-04-14T00:01:04.726Z,6.10
2023-04-14T00:03:53.554Z,5.50
2023-04-14T00:06:41.023Z,6.15
2023-04-14T00:09:28.228Z,6.07
2023-04-14T00:12:15.658Z,8.02
2023-04-14T00:15:03.769Z,6.22
2023-04-14T00:17:51.394Z,5.63
2023-04-14T00:20:40.408Z,7.00
2023-04-14T00:23:27.973Z,7.80
2023-04-14T00:26:15.464Z,10.27
2023-04-14T00:29:04.437Z,7.72
2023-04-14T00:31:52.269Z,8.65
2023-04-14T00:34:39.673Z,6.18
2023-04-14T00:37:28.313Z,6.65
2023-04-14T00:40:15.859Z,6.10
2023-04-14T00:43:03.335Z,5.60
2023-04-14T00:45:52.563Z,5.65
2023-04-14T00:48:39.950Z,6.30
2023-04-14T00:51:28.431Z,5.85
2023-04-14T00:54:20.311Z,6.72
2023-04-14T00:57:08.018Z,5.80
2023-04-14T00:59:55.530Z,6.70
2023-04-14T01:02:43.345Z,6.00
2023-04-14T01:05:32.265Z,6.45
2023-04-14T01:08:21.232Z,6.10
2023-04-14T01:11:17.789Z,5.80
2023-04-14T01:14:13.864Z,7.32
2023-04-14T01:17:07.669Z,7.78
2023-04-14T01:20:10.637Z,6.20
2023-04-14T01:23:14.379Z,6.82
2023-04-14T01:26:31.200Z,8.02
2023-04-14T01:29:38.116Z,7.53
2023-04-14T01:32:28.541Z,7.75
2023-04-14T01:35:21.439Z,7.45
2023-04-14T01:38:13.645Z,8.85
2023-04-14T01:41:05.688Z,8.88
2023-04-14T01:43:56.544Z,9.52
2023-04-14T01:46:47.760Z,11.30
2023-04-14T01:49:40.070Z,10.70
2023-04-14T01:52:28.661Z,10.50
2023-04-14T01:55:18.493Z,11.38
2023-04-14T01:58:07.851Z,10.75
2023-04-14T02:00:56.437Z,11.40
2023-04-14T02:03:44.835Z,11.32
2023-04-14T02:06:35.904Z,12.75
2023-04-14T02:09:26.622Z,13.23
2023-04-14T02:12:14.943Z,12.27
2023-04-14T02:15:03.590Z,12.70
2023-04-14T02:17:52.367Z,12.43
2023-04-14T02:20:44.977Z,13.55
2023-04-14T02:23:34.207Z,14.30
2023-04-14T02:26:24.980Z,13.40
2023-04-14T02:29:15.890Z,15.00
2023-04-14T02:32:06.641Z,13.07
2023-04-14T02:34:56.781Z,13.77
2023-04-14T02:37:52.035Z,16.58
2023-04-14T02:40:43.138Z,15.20
2023-04-14T02:43:38.006Z,16.75
2023-04-14T02:46:27.445Z,14.73
2023-04-14T02:49:17.470Z,15.20
2023-04-14T02:52:07.122Z,13.35
2023-04-14T02:54:56.156Z,14.50
2023-04-14T02:57:47.008Z,16.10
2023-04-14T03:00:35.785Z,14.52
2023-04-14T03:03:24.670Z,13.88
2023-04-14T03:06:15.550Z,15.57
2023-04-14T03:09:04.776Z,16.45
2023-04-14T03:11:54.527Z,18.27
2023-04-14T03:14:45.376Z,16.92
2023-04-14T03:17:33.971Z,17.80
2023-04-14T03:20:23.697Z,17.83
2023-04-14T03:23:14.804Z,18.60
2023-04-14T03:26:11.786Z,17.75
2023-04-14T03:29:02.288Z,17.77
2023-04-14T03:31:55.596Z,18.15
2023-04-14T03:34:46.718Z,18.35
2023-04-14T03:37:40.946Z,17.05
2023-04-14T03:40:32.390Z,19.58
2023-04-14T03:43:23.699Z,17.95
2023-04-14T03:46:17.637Z,18.30
2023-04-14T03:49:11.207Z,17.15
2023-04-14T03:52:02.621Z,18.20
2023-04-14T03:54:52.056Z,17.58
2023-04-14T03:57:41.888Z,16.73
2023-04-14T04:00:31.442Z,17.65
2023-04-14T04:03:20.781Z,20.05
2023-04-14T04:06:10.074Z,17.65
2023-04-14T04:08:59.232Z,17.95
2023-04-14T04:11:50.866Z,17.70
2023-04-14T04:14:40.573Z,18.13
2023-04-14T04:17:32.671Z,19.05
2023-04-14T04:20:21.981Z,19.77
2023-04-14T04:23:12.553Z,17.85
2023-04-14T04:26:00.600Z,19.10
2023-04-14T04:28:57.096Z,18.45
2023-04-14T04:31:46.843Z,18.02
2023-04-14T04:34:35.887Z,18.05
2023-04-14T04:37:28.730Z,18.92
2023-04-14T04:40:18.783Z,15.68
2023-04-14T04:43:08.445Z,17.33
2023-04-14T04:46:18.043Z,16.95
2023-04-14T04:49:05.631Z,17.85
2023-04-14T04:51:53.173Z,19.25
2023-04-14T04:54:40.937Z,17.70
2023-04-14T04:57:29.650Z,19.05
2023-04-14T05:00:17.874Z,18.05
2023-04-14T05:03:05.559Z,15.75
2023-04-14T05:05:53.248Z,16.95
2023-04-14T05:08:40.878Z,17.30
2023-04-14T05:11:28.268Z,17.00
2023-04-14T05:14:17.474Z,17.85
2023-04-14T05:17:05.106Z,17.77
2023-04-14T05:19:52.936Z,17.30
2023-04-14T05:22:40.476Z,18.35
2023-04-14T05:25:27.752Z,17.50
2023-04-14T05:28:16.374Z,17.40
2023-04-14T05:31:05.212Z,16.40
2023-04-14T05:33:52.763Z,16.15
2023-04-14T05:36:40.082Z,18.85
2023-04-14T05:39:27.521Z,17.48
2023-04-14T05:42:15.590Z,16.52
2023-04-14T05:45:04.254Z,17.88
2023-04-14T05:47:53.119Z,16.45
2023-04-14T05:50:41.109Z,18.80
2023-04-14T05:53:28.890Z,17.55
2023-04-14T05:56:16.372Z,17.02
2023-04-14T05:59:06.433Z,19.08
2023-04-14T06:01:54.143Z,19.65
2023-04-14T06:04:43.879Z,18.58
2023-04-14T06:07:31.654Z,19.00
2023-04-14T06:10:19.537Z,17.27
2023-04-14T06:13:08.640Z,16.98
2023-04-14T06:15:58.223Z,18.67
2023-04-14T06:18:45.572Z,18.05
2023-04-14T06:21:34.472Z,18.70
2023-04-14T06:24:22.136Z,20.17
2023-04-14T06:27:09.573Z,20.80
2023-04-14T06:30:00.044Z,19.92
2023-04-14T06:32:48.718Z,20.95
2023-04-14T06:35:36.898Z,20.58
2023-04-14T06:38:27.060Z,21.75
2023-04-14T06:41:14.533Z,22.90
2023-04-14T06:44:01.981Z,23.17
2023-04-14T06:46:49.678Z,22.38
2023-04-14T06:49:37.725Z,23.30
2023-04-14T06:52:25.111Z,21.52
2023-04-14T06:55:14.775Z,22.00
2023-04-14T06:58:02.413Z,23.65
2023-04-14T07:00:49.706Z,21.20
2023-04-14T07:03:37.673Z,22.60
2023-04-14T07:06:27.644Z,21.02
2023-04-14T07:09:16.009Z,20.30
2023-04-14T07:12:06.163Z,20.65
2023-04-14T07:14:53.793Z,21.55
2023-04-14T07:17:41.260Z,21.70
2023-04-14T07:20:29.618Z,20.58
2023-04-14T07:23:17.184Z,23.52
2023-04-14T07:26:04.544Z,23.90
2023-04-14T07:28:53.524Z,25.17
2023-04-14T07:31:41.291Z,23.90
2023-04-14T07:34:28.803Z,26.73
2023-04-14T07:37:17.235Z,28.15
2023-04-14T07:40:04.766Z,25.85
2023-04-14T07:42:52.168Z,27.95
2023-04-14T07:45:41.293Z,26.50
2023-04-14T07:48:28.994Z,28.13
2023-04-14T07:51:16.704Z,28.35
2023-04-14T07:54:05.978Z,28.00
2023-04-14T07:56:53.716Z,30.80
2023-04-14T07:59:42.882Z,27.35
2023-04-14T08:02:32.724Z,28.65
2023-04-14T08:05:20.161Z,28.70
2023-04-14T08:08:08.486Z,30.58
2023-04-14T08:10:55.971Z,28.77
2023-04-14T08:13:44.349Z,29.42
2023-04-14T08:16:32.823Z,27.45
2023-04-14T08:19:21.780Z,29.20
2023-04-14T08:22:09.986Z,29.58
2023-04-14T08:24:57.683Z,30.77
2023-04-14T08:27:44.928Z,31.83
2023-04-14T08:30:32.347Z,30.25
2023-04-14T08:33:19.871Z,30.08
2023-04-14T08:36:09.511Z,30.70
2023-04-14T08:38:56.818Z,30.60
2023-04-14T08:41:44.749Z,30.80
2023-04-14T08:44:32.381Z,29.17
2023-04-14T08:47:20.811Z,30.38
2023-04-14T08:50:14.121Z,31.23
2023-04-14T08:53:05.357Z,30.30
2023-04-14T08:55:54.857Z,29.33
2023-04-14T08:58:43.815Z,31.02
2023-04-14T09:01:33.636Z,29.27
2023-04-14T09:04:23.253Z,28.95
2023-04-14T09:07:11.048Z,29.55
2023-04-14T09:10:01.666Z,29.95
2023-04-14T09:12:49.912Z,30.48
2023-04-14T09:15:38.326Z,30.73
2023-04-14T09:18:28.346Z,31.13
2023-04-14T09:21:50.141Z,31.70
2023-04-14T09:24:32.483Z,31.05
2023-04-14T09:27:21.621Z,34.03
2023-04-14T09:30:11.022Z,31.52
2023-04-14T09:32:58.906Z,32.80
2023-04-14T09:35:48.659Z,34.28
2023-04-14T09:38:37.671Z,31.58
2023-04-14T09:41:26.173Z,32.00
2023-04-14T09:44:15.146Z,32.47
2023-04-14T09:47:05.168Z,30.63
2023-04-14T09:49:58.148Z,33.00
2023-04-14T09:52:46.917Z,32.33
2023-04-14T09:55:34.687Z,32.90
2023-04-14T09:58:25.342Z,30.27
2023-04-14T10:01:18.140Z,32.22
2023-04-14T10:04:06.204Z,33.28
2023-04-14T10:06:57.690Z,33.42
2023-04-14T10:09:49.706Z,31.50
2023-04-14T10:12:37.263Z,33.20
2023-04-14T10:15:24.927Z,32.85
2023-04-14T10:18:13.855Z,31.98
2023-04-14T10:21:02.586Z,32.17
2023-04-14T10:23:51.162Z,34.00
2023-04-14T10:26:38.519Z,32.78
2023-04-14T10:29:26.659Z,33.47
2023-04-14T10:32:17.659Z,34.97
2023-04-14T10:35:10.175Z,31.52
2023-04-14T10:37:58.115Z,34.72
2023-04-14T10:40:49.965Z,31.00
2023-04-14T10:43:38.189Z,34.15
2023-04-14T10:46:26.085Z,33.30
2023-04-14T10:49:14.327Z,32.72
2023-04-14T10:52:04.478Z,34.47
2023-04-14T10:54:54.508Z,33.90
2023-04-14T10:57:43.803Z,32.90
2023-04-14T11:00:32.483Z,34.13
2023-04-14T11:03:20.362Z,34.20
2023-04-14T11:06:08.445Z,31.80
2023-04-14T11:08:57.453Z,34.00
2023-04-14T11:11:44.856Z,31.27
2023-04-14T11:14:33.957Z,32.92
2023-04-14T11:17:23.268Z,31.88
2023-04-14T11:20:16.198Z,34.92
2023-04-14T11:23:04.204Z,34.00
2023-04-14T11:25:53.759Z,33.20
2023-04-14T11:28:43.598Z,33.47
2023-04-14T11:31:31.467Z,31.65
2023-04-14T11:34:26.853Z,30.70
2023-04-14T11:37:14.276Z,32.00
2023-04-14T11:40:01.810Z,33.63
2023-04-14T11:42:53.306Z,33.90
2023-04-14T11:45:44.132Z,34.20
2023-04-14T11:48:32.036Z,33.33
2023-04-14T11:51:20.631Z,31.20
2023-04-14T11:54:08.326Z,34.45
2023-04-14T11:56:55.932Z,30.55
2023-04-14T11:59:46.188Z,29.67
2023-04-14T12:02:33.866Z,29.92
2023-04-14T12:05:23.105Z,28.40
2023-04-14T12:08:12.695Z,28.90
2023-04-14T12:11:13.515Z,29.52
2023-04-14T12:14:02.549Z,29.30
2023-04-14T12:16:51.542Z,27.10
2023-04-14T12:19:39.493Z,28.38
2023-04-14T12:22:27.935Z,28.95
2023-04-14T12:25:15.486Z,29.80
2023-04-14T12:28:06.254Z,32.90
2023-04-14T12:30:55.024Z,31.38
2023-04-14T12:33:45.889Z,31.05
2023-04-14T12:36:49.014Z,29.67
2023-04-14T12:39:51.890Z,30.10
2023-04-14T12:42:48.154Z,31.60
2023-04-14T12:45:42.980Z,29.88
2023-04-14T12:48:43.789Z,26.92
2023-04-14T12:51:41.337Z,27.52
2023-04-14T12:54:43.513Z,27.33
2023-04-14T12:57:31.257Z,27.75
2023-04-14T13:00:19.443Z,29.77
2023-04-14T13:03:07.914Z,28.98
2023-04-14T13:05:56.015Z,28.17
2023-04-14T13:08:49.609Z,27.92
2023-04-14T13:11:37.273Z,30.30
2023-04-14T13:14:24.992Z,29.95
2023-04-14T13:17:12.802Z,29.13
2023-04-14T13:20:01.006Z,28.27
2023-04-14T13:22:48.627Z,28.08
2023-04-14T13:25:39.408Z,25.50
2023-04-14T13:28:27.662Z,28.63
2023-04-14T13:31:18.252Z,30.20
2023-04-14T13:34:06.106Z,30.88
2023-04-14T13:36:53.697Z,29.67
2023-04-14T13:39:41.134Z,32.22
2023-04-14T13:42:30.230Z,31.80
2023-04-14T13:45:17.866Z,30.67
2023-04-14T13:48:05.914Z,31.17
2023-04-14T13:50:54.477Z,31.40
2023-04-14T13:53:42.296Z,31.77
2023-04-14T13:56:29.946Z,31.45
2023-04-14T13:59:20.240Z,37.63
2023-04-14T14:02:08.248Z,40.45
2023-04-14T14:04:55.796Z,38.38
2023-04-14T14:07:44.727Z,35.03
2023-04-14T14:10:32.233Z,33.33
2023-04-14T14:13:20.724Z,34.75
2023-04-14T14:16:10.558Z,34.47
2023-04-14T14:18:58.037Z,34.20
2023-04-14T14:21:45.444Z,33.72
2023-04-14T14:24:33.464Z,35.20
2023-04-14T14:27:21.258Z,29.58
2023-04-14T14:30:09.986Z,33.50
2023-04-14T14:32:59.144Z,34.38
2023-04-14T14:35:46.921Z,35.92
2023-04-14T14:38:34.683Z,31.20
2023-04-14T14:41:22.500Z,32.47
2023-04-14T14:44:10.098Z,32.58
2023-04-14T14:46:58.693Z,33.65
2023-04-14T14:49:59.114Z,31.77
2023-04-14T14:52:47.987Z,32.08
2023-04-14T14:55:35.909Z,32.53
2023-04-14T14:58:24.473Z,31.70
2023-04-14T15:01:11.929Z,33.35
2023-04-14T15:03:59.555Z,30.90
2023-04-14T15:06:48.500Z,31.50
2023-04-14T15:09:36.595Z,34.83
2023-04-14T15:12:24.012Z,32.00
2023-04-14T15:15:13.138Z,32.30
2023-04-14T15:18:01.001Z,33.95
2023-04-14T15:20:48.460Z,31.15
2023-04-14T15:23:39.728Z,29.13
2023-04-14T15:26:27.334Z,31.50
2023-04-14T15:29:14.707Z,34.08
2023-04-14T15:32:02.218Z,35.40
2023-04-14T15:34:49.741Z,36.17
2023-04-14T15:37:37.292Z,33.17
2023-04-14T15:40:26.539Z,36.92
2023-04-14T15:43:16.093Z,34.40
2023-04-14T15:46:03.670Z,35.35
2023-04-14T15:48:51.245Z,35.80
2023-04-14T15:51:38.831Z,31.50
2023-04-14T15:54:26.736Z,32.63
2023-04-14T15:57:15.853Z,31.02
2023-04-14T16:00:04.953Z,36.30
2023-04-14T16:03:02.153Z,31.52
2023-04-14T16:05:49.758Z,35.92
2023-04-14T16:08:37.432Z,35.20
2023-04-14T16:11:25.270Z,34.95
2023-04-14T16:14:14.183Z,36.30
2023-04-14T16:17:01.612Z,35.80
2023-04-14T16:19:49.027Z,37.20
2023-04-14T16:22:37.119Z,35.97
2023-04-14T16:25:24.920Z,38.35
2023-04-14T16:28:12.526Z,39.88
2023-04-14T16:31:02.051Z,36.70
2023-04-14T16:33:49.751Z,38.30
2023-04-14T16:36:38.115Z,37.50
2023-04-14T16:39:27.918Z,41.08
2023-04-14T16:42:18.718Z,38.60
2023-04-14T16:45:07.214Z,36.65
2023-04-14T16:47:56.292Z,37.00
2023-04-14T16:50:47.069Z,39.38
2023-04-14T16:53:34.771Z,39.35
2023-04-14T16:56:22.978Z,39.20
2023-04-14T16:59:10.419Z,40.95
2023-04-14T17:01:58.367Z,40.92
2023-04-14T17:04:47.534Z,42.00
2023-04-14T17:07:35.047Z,40.22
2023-04-14T17:10:22.860Z,41.90
2023-04-14T17:13:10.650Z,41.63
2023-04-14T17:16:06.127Z,38.72
2023-04-14T17:18:58.179Z,40.70
2023-04-14T17:21:47.172Z,42.22
2023-04-14T17:24:34.908Z,43.75
2023-04-14T17:27:22.480Z,42.75
2023-04-14T17:30:12.056Z,45.95
2023-04-14T17:32:59.773Z,40.45
2023-04-14T17:35:47.989Z,42.55
2023-04-14T17:38:38.729Z,45.67
2023-04-14T17:41:27.133Z,47.35
2023-04-14T17:44:14.915Z,44.40
2023-04-14T17:47:03.362Z,46.47
2023-04-14T17:49:51.461Z,45.95
2023-04-14T17:52:40.725Z,45.40
2023-04-14T17:55:29.394Z,45.45
2023-04-14T17:58:16.985Z,47.28
2023-04-14T18:01:05.252Z,45.25
2023-04-14T18:03:52.884Z,47.80
2023-04-14T18:06:40.835Z,49.85
2023-04-14T18:09:28.683Z,46.20
2023-04-14T18:12:17.518Z,47.67
2023-04-14T18:15:05.235Z,47.92
2023-04-14T18:17:52.778Z,51.25
2023-04-14T18:20:40.409Z,46.78
2023-04-14T18:23:28.671Z,46.13
2023-04-14T18:29:08.845Z,52.88
2023-04-14T18:31:58.311Z,49.00
2023-04-14T18:34:46.004Z,45.05
2023-04-14T18:37:33.413Z,48.28
2023-04-14T18:40:21.202Z,50.05
2023-04-14T18:43:08.621Z,46.50
2023-04-14T18:45:57.302Z,50.15
2023-04-14T18:48:45.042Z,48.38
2023-04-14T18:51:32.788Z,48.67
2023-04-14T18:54:21.427Z,48.42
2023-04-14T18:57:09.378Z,51.53
2023-04-14T18:59:56.973Z,51.10
2023-04-14T19:02:45.799Z,50.97
2023-04-14T19:05:35.241Z,54.22
2023-04-14T19:08:22.762Z,52.67
2023-04-14T19:11:11.827Z,51.78
2023-04-14T19:13:59.673Z,52.80
2023-04-14T19:16:47.148Z,54.45
2023-04-14T19:19:36.483Z,53.03
2023-04-14T19:22:23.793Z,49.22
2023-04-14T19:25:11.929Z,51.60
2023-04-14T19:28:02.213Z,52.92
2023-04-14T19:30:49.710Z,52.33
2023-04-14T19:33:37.582Z,53.45
2023-04-14T19:36:26.587Z,51.67
2023-04-14T19:39:14.346Z,52.35
2023-04-14T19:42:02.031Z,48.05
2023-04-14T19:44:49.497Z,49.83
2023-04-14T19:47:37.664Z,50.58
2023-04-14T19:50:25.514Z,50.88
2023-04-14T19:53:15.566Z,50.85
2023-04-14T19:56:05.551Z,50.55
2023-04-14T19:58:54.063Z,49.38
2023-04-14T20:01:42.420Z,47.40
2023-04-14T20:04:30.228Z,49.20
2023-04-14T20:07:17.709Z,46.88
2023-04-14T20:10:08.276Z,49.58
2023-04-14T20:12:55.903Z,46.70
2023-04-14T20:15:43.599Z,48.35
2023-04-14T20:18:31.466Z,45.33
2023-04-14T20:21:19.533Z,50.38
2023-04-14T20:24:07.434Z,49.63
2023-04-14T20:26:56.544Z,46.92
2023-04-14T20:29:44.526Z,49.20
2023-04-14T20:32:32.396Z,54.63
2023-04-14T20:35:20.206Z,51.72
2023-04-14T20:38:08.190Z,54.22
2023-04-14T20:40:55.889Z,50.03
2023-04-14T20:43:44.654Z,45.90
2023-04-14T20:46:32.773Z,51.25
2023-04-14T20:49:20.208Z,53.20
2023-04-14T20:52:07.812Z,55.97
2023-04-14T20:54:55.521Z,49.03
2023-04-14T20:57:43.703Z,48.75
2023-04-14T21:00:34.267Z,54.53
2023-04-14T21:03:23.911Z,49.95
2023-04-14T21:06:11.874Z,52.38
2023-04-14T21:08:59.552Z,51.45
2023-04-14T21:11:47.036Z,49.40
2023-04-14T21:15:40.163Z,47.50
2023-04-14T21:20:30.742Z,55.65
2023-04-14T21:23:20.374Z,50.88
2023-04-14T21:26:08.136Z,53.25
2023-04-14T21:28:56.092Z,51.40
2023-04-14T21:31:43.770Z,52.25
2023-04-14T21:34:33.571Z,49.55
2023-04-14T21:37:21.428Z,46.88
2023-04-14T21:40:10.153Z,51.70
2023-04-14T21:42:57.632Z,49.33
2023-04-14T21:45:46.129Z,54.08
2023-04-14T21:48:33.937Z,49.13
2023-04-14T21:51:22.586Z,50.72
2023-04-14T21:54:10.398Z,47.63
2023-04-14T21:56:58.305Z,51.47
2023-04-14T21:59:46.290Z,54.75
2023-04-14T22:02:34.200Z,53.88
2023-04-14T22:05:21.952Z,54.85
2023-04-14T22:08:12.181Z,49.50
2023-04-14T22:11:00.178Z,52.80
2023-04-14T22:13:48.053Z,52.58
2023-04-14T22:16:36.306Z,49.97
2023-04-14T22:19:23.953Z,48.80
2023-04-14T22:22:11.411Z,49.17
2023-04-14T22:25:00.415Z,42.67
2023-04-14T22:27:48.104Z,44.28
2023-04-14T22:30:35.655Z,44.30
2023-04-14T22:33:23.285Z,53.58
2023-04-14T22:36:10.608Z,48.03
2023-04-14T22:38:58.311Z,45.15
2023-04-14T22:41:49.738Z,47.40
2023-04-14T22:44:37.264Z,51.08
2023-04-14T22:47:24.899Z,45.92
2023-04-14T22:50:12.749Z,49.40
2023-04-14T22:53:00.925Z,49.45
2023-04-14T22:55:48.702Z,47.30
2023-04-14T22:58:39.861Z,50.95
2023-04-14T23:01:29.015Z,45.33
2023-04-14T23:04:16.825Z,39.78
2023-04-14T23:07:04.579Z,32.88
2023-04-14T23:09:52.261Z,28.50
2023-04-14T23:12:40.192Z,22.08
2023-04-14T23:15:28.995Z,19.35
2023-04-14T23:18:16.517Z,15.05
2023-04-14T23:21:03.938Z,14.20
2023-04-14T23:23:51.465Z,14.15
2023-04-14T23:26:38.909Z,12.73
2023-04-14T23:29:26.742Z,13.88
2023-04-14T23:32:15.829Z,13.13
2023-04-14T23:35:03.392Z,13.13
2023-04-14T23:37:50.773Z,13.68
2023-04-14T23:40:38.349Z,12.70
2023-04-14T23:43:25.906Z,13.18
2023-04-14T23:46:14.029Z,13.77
2023-04-14T23:49:23.882Z,12.88
2023-04-14T23:52:11.020Z,13.52
2023-04-14T23:54:58.696Z,12.95
2023-04-14T23:57:46.960Z,12.80
